createdAt,value
2017-09-10T00:01:58.571Z,71.44
2017-09-10T00:04:25.969Z,71.52
2017-09-10T00:06:53.351Z,71.10
2017-09-10T00:09:20.755Z,72.39
2017-09-10T00:11:48.151Z,71.97
2017-09-10T00:14:15.633Z,71.57
2017-09-10T00:16:43.022Z,71.40
2017-09-10T00:19:10.423Z,71.93
2017-09-10T00:21:37.814Z,72.04
2017-09-10T00:24:05.212Z,72.98
2017-09-10T00:26:32.602Z,73.14
2017-09-10T00:28:59.994Z,73.21
2017-09-10T00:31:27.382Z,73.71
2017-09-10T00:33:54.787Z,73.27
2017-09-10T00:36:22.226Z,74.76
2017-09-10T00:38:49.635Z,74.75
2017-09-10T00:41:17.023Z,74.52
2017-09-10T00:43:44.422Z,75.34
2017-09-10T00:46:11.846Z,75.44
2017-09-10T00:48:39.242Z,74.99
2017-09-10T00:51:06.639Z,75.64
2017-09-10T00:53:34.034Z,76.35
2017-09-10T00:56:01.435Z,77.15
2017-09-10T00:58:28.838Z,77.93
2017-09-10T01:00:56.231Z,79.02
2017-09-10T01:03:23.619Z,79.18
2017-09-10T01:05:51.021Z,79.06
2017-09-10T01:08:18.414Z,79.63
2017-09-10T01:10:45.810Z,80.46
2017-09-10T01:13:13.194Z,80.15
2017-09-10T01:15:40.606Z,79.98
2017-09-10T01:18:07.996Z,80.62
2017-09-10T01:20:35.411Z,80.97
2017-09-10T01:23:02.807Z,80.69
2017-09-10T01:25:30.205Z,80.24
2017-09-10T01:27:57.601Z,80.02
2017-09-10T01:30:25.007Z,81.47
2017-09-10T01:32:52.500Z,80.80
2017-09-10T01:35:19.959Z,79.96
2017-09-10T01:37:47.374Z,78.92
2017-09-10T01:40:14.753Z,78.47
2017-09-10T01:42:42.141Z,77.90
2017-09-10T01:45:09.530Z,78.15
2017-09-10T01:47:36.931Z,77.75
2017-09-10T01:50:04.323Z,77.84
2017-09-10T01:52:31.720Z,76.88
2017-09-10T01:54:59.190Z,76.76
2017-09-10T01:57:26.590Z,77.50
2017-09-10T01:59:54.782Z,79.28
2017-09-10T02:02:22.182Z,79.29
2017-09-10T02:04:49.647Z,79.07
2017-09-10T02:07:17.048Z,78.38
2017-09-10T02:09:44.438Z,78.07
2017-09-10T02:12:11.899Z,78.20
2017-09-10T02:14:39.298Z,78.05
2017-09-10T02:17:06.690Z,79.16
2017-09-10T02:19:34.078Z,80.07
2017-09-10T02:22:01.477Z,80.50
2017-09-10T02:24:28.862Z,81.03
2017-09-10T02:26:56.275Z,80.35
2017-09-10T02:29:23.689Z,79.70
2017-09-10T02:31:51.087Z,80.36
2017-09-10T02:34:18.474Z,78.40
2017-09-10T02:36:45.926Z,78.03
2017-09-10T02:39:13.322Z,77.01
2017-09-10T02:41:40.783Z,76.85
2017-09-10T02:44:08.184Z,76.55
2017-09-10T02:46:35.577Z,76.70
2017-09-10T02:49:02.970Z,75.72
2017-09-10T02:51:30.379Z,75.84
2017-09-10T02:53:57.868Z,75.18
2017-09-10T02:56:25.256Z,75.29
2017-09-10T02:58:52.654Z,75.73
2017-09-10T03:01:20.052Z,76.17
2017-09-10T03:03:47.442Z,75.95
2017-09-10T03:06:14.834Z,76.00
2017-09-10T03:08:42.231Z,75.53
2017-09-10T03:11:09.623Z,75.90
2017-09-10T03:13:37.022Z,75.81
2017-09-10T03:16:04.414Z,76.06
2017-09-10T03:18:31.814Z,75.35
2017-09-10T03:20:59.215Z,75.37
2017-09-10T03:23:26.600Z,76.24
2017-09-10T03:25:53.999Z,76.88
2017-09-10T03:28:21.407Z,77.15
2017-09-10T03:30:48.884Z,77.07
2017-09-10T03:33:16.277Z,77.25
2017-09-10T03:35:43.667Z,77.98
2017-09-10T03:38:11.065Z,79.26
2017-09-10T03:40:38.466Z,80.18
2017-09-10T03:43:05.966Z,81.27
2017-09-10T03:45:33.363Z,81.12
2017-09-10T03:48:00.755Z,81.38
2017-09-10T03:50:28.158Z,80.80
2017-09-10T03:52:55.559Z,80.53
2017-09-10T03:55:22.960Z,80.28
2017-09-10T03:57:50.356Z,80.81
2017-09-10T04:00:17.760Z,80.48
2017-09-10T04:02:45.147Z,80.83
2017-09-10T04:05:12.550Z,79.98
2017-09-10T04:07:39.951Z,79.47
2017-09-10T04:10:07.366Z,79.02
2017-09-10T04:12:34.763Z,79.81
2017-09-10T04:15:02.162Z,80.21
2017-09-10T04:17:29.645Z,80.26
2017-09-10T04:19:57.036Z,81.16
2017-09-10T04:22:24.438Z,80.61
2017-09-10T04:24:51.912Z,82.35
2017-09-10T04:27:19.314Z,82.64
2017-09-10T04:29:46.714Z,82.84
2017-09-10T04:32:14.123Z,81.98
2017-09-10T04:34:41.510Z,82.61
2017-09-10T04:37:08.915Z,83.19
2017-09-10T04:39:36.303Z,83.31
2017-09-10T04:42:03.704Z,82.28
2017-09-10T04:44:31.094Z,83.46
2017-09-10T04:46:58.507Z,83.59
2017-09-10T04:49:25.903Z,83.10
2017-09-10T04:51:53.294Z,83.83
2017-09-10T04:54:20.688Z,83.30
2017-09-10T04:56:48.095Z,82.96
2017-09-10T04:59:15.534Z,82.80
2017-09-10T05:01:42.931Z,81.43
2017-09-10T05:04:10.346Z,82.56
2017-09-10T05:06:37.750Z,84.06
2017-09-10T05:09:05.215Z,83.44
2017-09-10T05:11:32.620Z,83.19
2017-09-10T05:14:00.023Z,81.89
2017-09-10T05:16:27.418Z,82.27
2017-09-10T05:18:54.811Z,82.32
2017-09-10T05:21:22.223Z,83.55
2017-09-10T05:23:49.611Z,82.35
2017-09-10T05:26:17.050Z,81.83
2017-09-10T05:28:44.442Z,81.70
2017-09-10T05:31:11.838Z,81.54
2017-09-10T05:33:39.243Z,80.85
2017-09-10T05:36:06.634Z,81.00
2017-09-10T05:38:34.040Z,80.82
2017-09-10T05:41:01.430Z,81.01
2017-09-10T05:43:28.827Z,80.59
2017-09-10T05:45:56.219Z,81.35
2017-09-10T05:48:23.616Z,80.70
2017-09-10T05:50:51.005Z,80.17
2017-09-10T05:53:18.399Z,79.97
2017-09-10T05:55:45.915Z,79.66
2017-09-10T05:58:13.290Z,79.64
2017-09-10T06:00:40.700Z,80.15
2017-09-10T06:03:08.094Z,80.16
2017-09-10T06:05:35.502Z,80.08
2017-09-10T06:08:02.895Z,79.81
2017-09-10T06:10:30.294Z,78.90
2017-09-10T06:12:57.694Z,79.78
2017-09-10T06:15:25.090Z,80.23
2017-09-10T06:17:52.474Z,80.10
2017-09-10T06:20:19.876Z,80.12
2017-09-10T06:22:47.270Z,80.06
2017-09-10T06:25:14.670Z,80.70
2017-09-10T06:27:42.062Z,80.02
2017-09-10T06:30:09.458Z,78.26
2017-09-10T06:32:36.858Z,78.84
2017-09-10T06:35:04.260Z,80.33
2017-09-10T06:37:31.650Z,80.48
2017-09-10T06:39:59.051Z,79.49
2017-09-10T06:42:26.442Z,80.41
2017-09-10T06:44:53.922Z,81.39
2017-09-10T06:47:21.321Z,82.30
2017-09-10T06:49:48.736Z,80.87
2017-09-10T06:52:16.126Z,81.31
2017-09-10T06:54:43.523Z,80.43
2017-09-10T06:57:10.998Z,81.46
2017-09-10T06:59:38.450Z,80.82
2017-09-10T07:02:05.851Z,81.58
2017-09-10T07:04:33.247Z,80.26
2017-09-10T07:07:00.652Z,80.47
2017-09-10T07:09:28.051Z,79.84
2017-09-10T07:11:55.446Z,80.29
2017-09-10T07:14:22.835Z,78.77
2017-09-10T07:16:50.243Z,79.23
2017-09-10T07:19:17.633Z,79.57
2017-09-10T07:21:45.027Z,78.54
2017-09-10T07:24:12.421Z,78.73
2017-09-10T07:26:39.815Z,77.98
2017-09-10T07:29:07.198Z,78.29
2017-09-10T07:31:34.622Z,78.97
2017-09-10T07:34:02.022Z,78.34
2017-09-10T07:36:29.423Z,77.25
2017-09-10T07:38:56.963Z,77.66
2017-09-10T07:41:24.338Z,75.67
2017-09-10T07:43:51.743Z,74.25
2017-09-10T07:46:19.130Z,76.43
2017-09-10T07:48:46.522Z,76.03
2017-09-10T07:51:13.915Z,76.56
2017-09-10T07:53:41.387Z,76.53
2017-09-10T07:56:08.778Z,76.94
2017-09-10T07:58:36.192Z,75.83
2017-09-10T08:01:03.578Z,77.22
2017-09-10T08:03:30.978Z,76.89
2017-09-10T08:05:58.386Z,76.06
2017-09-10T08:08:25.778Z,75.55
2017-09-10T08:10:53.170Z,74.89
2017-09-10T08:13:20.566Z,73.65
2017-09-10T08:15:47.958Z,71.90
2017-09-10T08:18:15.383Z,72.53
2017-09-10T08:20:42.800Z,71.81
2017-09-10T08:23:10.187Z,72.38
2017-09-10T08:25:37.598Z,73.90
2017-09-10T08:28:05.000Z,72.69
2017-09-10T08:30:32.394Z,71.43
2017-09-10T08:32:59.781Z,70.92
2017-09-10T08:35:27.226Z,67.58
2017-09-10T08:37:54.610Z,66.62
2017-09-10T08:40:22.011Z,66.96
2017-09-10T08:42:49.407Z,60.98
2017-09-10T08:45:16.805Z,58.76
2017-09-10T08:47:45.167Z,57.90
2017-09-10T08:50:12.557Z,56.61
2017-09-10T08:52:39.951Z,56.24
2017-09-10T08:55:07.347Z,53.95
2017-09-10T08:57:34.738Z,51.59
2017-09-10T09:00:02.130Z,50.73
2017-09-10T09:02:29.519Z,48.36
2017-09-10T09:04:56.923Z,46.33
2017-09-10T09:07:24.365Z,49.17
2017-09-10T09:09:51.769Z,48.62
2017-09-10T09:12:19.155Z,49.06
2017-09-10T09:14:46.545Z,49.03
2017-09-10T09:17:13.943Z,49.55
2017-09-10T09:19:41.334Z,46.38
2017-09-10T09:22:09.326Z,48.57
2017-09-10T09:24:36.770Z,49.82
2017-09-10T09:27:04.230Z,48.98
2017-09-10T09:29:31.622Z,51.34
2017-09-10T09:31:59.011Z,51.22
2017-09-10T09:34:26.399Z,50.12
2017-09-10T09:36:53.800Z,51.71
2017-09-10T09:39:21.187Z,52.21
2017-09-10T09:41:48.587Z,53.09
2017-09-10T09:44:15.967Z,54.42
2017-09-10T09:46:43.354Z,52.61
2017-09-10T09:49:10.739Z,54.90
2017-09-10T09:51:38.134Z,53.73
2017-09-10T09:54:05.536Z,55.13
2017-09-10T09:56:32.995Z,54.17
2017-09-10T09:59:00.375Z,53.00
2017-09-10T10:01:27.751Z,52.69
2017-09-10T10:03:55.142Z,51.59
2017-09-10T10:06:22.534Z,53.43
2017-09-10T10:08:49.925Z,50.75
2017-09-10T10:11:17.298Z,49.94
2017-09-10T10:13:44.700Z,51.73
2017-09-10T10:16:12.082Z,52.01
2017-09-10T10:18:39.466Z,52.69
2017-09-10T10:21:06.847Z,52.49
2017-09-10T10:23:34.239Z,52.10
2017-09-10T10:26:01.629Z,51.61
2017-09-10T10:28:29.019Z,52.71
2017-09-10T10:30:56.403Z,53.19
2017-09-10T10:33:23.792Z,53.57
2017-09-10T10:35:51.171Z,53.92
2017-09-10T10:38:18.645Z,53.50
2017-09-10T10:40:46.107Z,54.62
2017-09-10T10:43:14.399Z,55.17
2017-09-10T10:45:41.774Z,54.68
2017-09-10T10:48:09.164Z,55.92
2017-09-10T10:50:36.580Z,56.60
2017-09-10T10:53:03.970Z,57.08
2017-09-10T10:55:31.354Z,58.38
2017-09-10T10:57:58.735Z,55.22
2017-09-10T11:00:26.119Z,54.23
2017-09-10T11:02:53.522Z,53.65
2017-09-10T11:05:20.941Z,52.90
2017-09-10T11:07:48.286Z,53.13
2017-09-10T11:10:15.671Z,53.21
2017-09-10T11:12:43.045Z,52.45
2017-09-10T11:15:10.435Z,52.89
2017-09-10T11:17:37.817Z,53.53
2017-09-10T11:20:05.208Z,53.78
2017-09-10T11:22:32.671Z,53.74
2017-09-10T11:25:00.058Z,54.21
2017-09-10T11:27:27.475Z,53.10
2017-09-10T11:29:54.867Z,53.37
2017-09-10T11:32:22.247Z,54.41
2017-09-10T11:34:49.650Z,50.45
2017-09-10T11:37:17.035Z,49.50
2017-09-10T11:39:44.430Z,51.63
2017-09-10T11:42:11.810Z,52.52
2017-09-10T11:44:39.276Z,53.24
2017-09-10T11:47:06.654Z,52.44
2017-09-10T11:49:34.041Z,52.46
2017-09-10T11:52:01.443Z,53.72
2017-09-10T11:54:28.819Z,52.18
2017-09-10T11:56:56.209Z,51.34
2017-09-10T11:59:23.606Z,55.08
2017-09-10T12:04:17.667Z,50.32
2017-09-10T12:06:45.065Z,51.04
2017-09-10T12:09:12.528Z,52.00
2017-09-10T12:11:39.911Z,48.67
2017-09-10T12:14:07.298Z,50.33
2017-09-10T12:16:34.686Z,49.36
2017-09-10T12:19:02.063Z,47.59
2017-09-10T12:21:29.455Z,48.32
2017-09-10T12:23:56.834Z,46.31
2017-09-10T12:26:24.223Z,49.02
2017-09-10T12:28:51.658Z,49.00
2017-09-10T12:31:19.050Z,48.17
2017-09-10T12:33:46.471Z,49.36
2017-09-10T12:36:13.855Z,48.86
2017-09-10T12:38:41.244Z,49.99
2017-09-10T12:41:08.623Z,49.42
2017-09-10T12:43:36.013Z,50.10
2017-09-10T12:46:03.394Z,51.32
2017-09-10T12:48:30.806Z,50.10
2017-09-10T12:50:58.186Z,49.53
2017-09-10T12:53:25.579Z,50.08
2017-09-10T12:55:52.970Z,47.61
2017-09-10T12:58:20.366Z,49.35
2017-09-10T13:00:47.752Z,51.41
2017-09-10T13:03:15.197Z,46.94
2017-09-10T13:05:42.576Z,49.24
2017-09-10T13:08:09.982Z,48.90
2017-09-10T13:10:37.359Z,49.94
2017-09-10T13:13:04.743Z,49.17
2017-09-10T13:15:32.123Z,49.00
2017-09-10T13:17:59.513Z,48.28
2017-09-10T13:20:26.900Z,50.88
2017-09-10T13:22:54.287Z,49.61
2017-09-10T13:25:21.749Z,50.30
2017-09-10T13:27:49.144Z,49.39
2017-09-10T13:30:16.558Z,48.10
2017-09-10T13:32:43.939Z,47.78
2017-09-10T13:35:11.330Z,47.94
2017-09-10T13:37:38.735Z,48.26
2017-09-10T13:40:06.109Z,48.07
2017-09-10T13:42:33.493Z,48.18
2017-09-10T13:45:00.874Z,50.61
2017-09-10T13:47:28.354Z,48.31
2017-09-10T13:49:55.743Z,48.00
2017-09-10T13:52:23.134Z,48.22
2017-09-10T13:54:50.531Z,48.65
2017-09-10T13:57:17.975Z,50.33
2017-09-10T13:59:45.370Z,49.75
2017-09-10T14:02:12.754Z,51.65
2017-09-10T14:04:40.144Z,50.76
2017-09-10T14:07:07.532Z,49.43
2017-09-10T14:09:34.942Z,50.69
2017-09-10T14:12:02.327Z,51.04
2017-09-10T14:14:29.718Z,49.76
2017-09-10T14:16:57.098Z,50.94
2017-09-10T14:19:24.487Z,52.05
2017-09-10T14:21:51.874Z,51.19
2017-09-10T14:24:19.256Z,51.46
2017-09-10T14:26:46.743Z,50.84
2017-09-10T14:29:14.126Z,49.70
2017-09-10T14:31:41.539Z,49.41
2017-09-10T14:34:08.915Z,52.75
2017-09-10T14:36:36.303Z,50.09
2017-09-10T14:39:03.708Z,51.73
2017-09-10T14:41:31.099Z,51.44
2017-09-10T14:43:58.575Z,51.17
2017-09-10T14:46:25.963Z,51.17
2017-09-10T14:48:53.344Z,49.80
2017-09-10T14:51:20.738Z,50.51
2017-09-10T14:53:48.184Z,51.92
2017-09-10T14:56:15.558Z,48.33
2017-09-10T14:58:42.938Z,48.06
2017-09-10T15:01:10.326Z,47.61
2017-09-10T15:03:37.714Z,49.60
2017-09-10T15:06:05.099Z,48.73
2017-09-10T15:08:32.492Z,49.49
2017-09-10T15:10:59.875Z,49.22
2017-09-10T15:13:27.259Z,50.21
2017-09-10T15:15:54.639Z,49.14
2017-09-10T15:18:22.027Z,50.16
2017-09-10T15:20:49.416Z,50.78
2017-09-10T15:23:16.803Z,52.39
2017-09-10T15:25:44.187Z,51.46
2017-09-10T15:28:11.577Z,50.79
2017-09-10T15:30:38.987Z,51.58
2017-09-10T15:33:06.374Z,50.86
2017-09-10T15:35:33.754Z,52.19
2017-09-10T15:38:01.168Z,52.00
2017-09-10T15:40:28.542Z,50.09
2017-09-10T15:42:55.929Z,51.37
2017-09-10T15:45:23.307Z,52.20
2017-09-10T15:47:50.702Z,50.62
2017-09-10T15:50:18.085Z,49.51
2017-09-10T15:52:45.475Z,50.05
2017-09-10T15:55:12.864Z,50.26
2017-09-10T15:57:40.246Z,50.56
2017-09-10T16:00:07.675Z,50.90
2017-09-10T16:02:35.030Z,51.32
2017-09-10T16:05:02.428Z,52.46
2017-09-10T16:07:29.825Z,51.19
2017-09-10T16:09:57.206Z,51.87
2017-09-10T16:12:24.586Z,51.51
2017-09-10T16:14:51.984Z,52.36
2017-09-10T16:17:19.362Z,50.67
2017-09-10T16:19:46.782Z,50.81
2017-09-10T16:22:14.168Z,50.80
2017-09-10T16:24:41.559Z,50.87
2017-09-10T16:27:08.944Z,51.62
2017-09-10T16:29:36.330Z,50.36
2017-09-10T16:32:03.723Z,50.69
2017-09-10T16:34:31.143Z,51.31
2017-09-10T16:36:58.502Z,51.12
2017-09-10T16:39:25.891Z,51.20
2017-09-10T16:41:53.266Z,50.13
2017-09-10T16:44:20.658Z,51.86
2017-09-10T16:46:48.042Z,51.42
2017-09-10T16:49:15.438Z,51.37
2017-09-10T16:51:42.822Z,51.33
2017-09-10T16:54:10.203Z,51.90
2017-09-10T16:56:37.599Z,51.93
2017-09-10T16:59:04.995Z,52.70
2017-09-10T17:01:32.387Z,51.20
2017-09-10T17:03:59.762Z,52.38
2017-09-10T17:06:27.150Z,52.62
2017-09-10T17:08:54.531Z,51.70
2017-09-10T17:11:21.919Z,51.80
2017-09-10T17:13:49.304Z,54.29
2017-09-10T17:16:16.775Z,52.99
2017-09-10T17:18:44.210Z,52.58
2017-09-10T17:21:11.676Z,53.52
2017-09-10T17:23:39.051Z,54.10
2017-09-10T17:26:06.439Z,54.94
2017-09-10T17:28:33.819Z,56.35
2017-09-10T17:31:01.211Z,56.78
2017-09-10T17:33:28.771Z,57.52
2017-09-10T17:35:56.151Z,57.45
2017-09-10T17:38:23.540Z,57.96
2017-09-10T17:40:50.920Z,58.94
2017-09-10T17:43:18.380Z,59.04
2017-09-10T17:45:45.760Z,60.78
2017-09-10T17:48:13.155Z,60.12
2017-09-10T17:50:40.555Z,60.51
2017-09-10T17:53:07.940Z,59.72
2017-09-10T17:55:35.318Z,60.09
2017-09-10T17:58:02.702Z,59.81
2017-09-10T18:00:30.087Z,60.99
2017-09-10T18:02:57.471Z,61.29
2017-09-10T18:05:24.871Z,61.55
2017-09-10T18:07:52.263Z,62.46
2017-09-10T18:10:19.647Z,62.83
2017-09-10T18:12:47.038Z,62.34
2017-09-10T18:15:14.428Z,62.94
2017-09-10T18:17:42.823Z,63.44
2017-09-10T18:20:10.210Z,62.57
2017-09-10T18:22:37.686Z,63.71
2017-09-10T18:25:05.066Z,63.28
2017-09-10T18:27:32.466Z,63.92
2017-09-10T18:29:59.854Z,63.36
2017-09-10T18:32:27.318Z,63.62
2017-09-10T18:34:54.702Z,63.80
2017-09-10T18:37:22.128Z,64.08
2017-09-10T18:39:49.515Z,63.93
2017-09-10T18:42:16.895Z,65.00
2017-09-10T18:44:44.391Z,65.36
2017-09-10T18:47:11.766Z,65.45
2017-09-10T18:49:39.155Z,66.12
2017-09-10T18:52:06.553Z,66.39
2017-09-10T18:57:07.791Z,65.94
2017-09-10T18:59:35.183Z,66.51
2017-09-10T19:02:02.958Z,67.14
2017-09-10T19:04:30.347Z,66.81
2017-09-10T19:06:57.735Z,67.02
2017-09-10T19:09:25.133Z,67.00
2017-09-10T19:11:52.502Z,67.62
2017-09-10T19:14:19.890Z,67.82
2017-09-10T19:16:47.274Z,67.71
2017-09-10T19:19:14.726Z,67.54
2017-09-10T19:21:42.101Z,68.53
2017-09-10T19:24:09.490Z,68.07
2017-09-10T19:26:36.894Z,68.73
2017-09-10T19:29:04.279Z,68.91
2017-09-10T19:31:31.679Z,69.38
2017-09-10T19:33:59.069Z,69.18
2017-09-10T19:36:26.454Z,69.31
2017-09-10T19:38:53.831Z,68.92
2017-09-10T19:41:21.226Z,68.92
2017-09-10T19:43:48.598Z,69.28
2017-09-10T19:46:15.991Z,69.12
2017-09-10T19:48:43.371Z,69.36
2017-09-10T19:51:10.762Z,69.75
2017-09-10T19:53:38.142Z,69.93
2017-09-10T19:56:05.527Z,69.23
2017-09-10T19:58:32.906Z,69.29
2017-09-10T20:01:00.294Z,69.96
2017-09-10T20:03:27.675Z,70.66
2017-09-10T20:05:55.058Z,70.04
2017-09-10T20:08:22.444Z,70.04
2017-09-10T20:10:49.835Z,69.76
2017-09-10T20:13:17.214Z,69.88
2017-09-10T20:15:44.597Z,69.74
2017-09-10T20:18:11.982Z,69.85
2017-09-10T20:20:39.372Z,68.65
2017-09-10T20:23:06.758Z,68.61
2017-09-10T20:25:34.138Z,69.33
2017-09-10T20:28:01.523Z,69.57
2017-09-10T20:30:28.935Z,69.11
2017-09-10T20:32:56.387Z,68.94
2017-09-10T20:35:23.771Z,70.11
2017-09-10T20:37:51.163Z,68.86
2017-09-10T20:40:18.551Z,68.38
2017-09-10T20:42:45.939Z,69.49
2017-09-10T20:45:13.327Z,68.23
2017-09-10T20:47:40.715Z,68.54
2017-09-10T20:50:08.099Z,68.39
2017-09-10T20:52:35.488Z,68.34
2017-09-10T20:55:02.867Z,68.26
2017-09-10T20:57:30.260Z,68.70
2017-09-10T20:59:57.658Z,69.02
2017-09-10T21:02:25.064Z,67.83
2017-09-10T21:04:52.506Z,68.47
2017-09-10T21:07:19.957Z,68.18
2017-09-10T21:09:47.420Z,68.00
2017-09-10T21:12:14.871Z,67.85
2017-09-10T21:14:42.266Z,67.48
2017-09-10T21:17:09.650Z,67.97
2017-09-10T21:19:37.042Z,67.70
2017-09-10T21:22:04.423Z,67.79
2017-09-10T21:24:31.841Z,67.93
2017-09-10T21:26:59.222Z,68.67
2017-09-10T21:29:26.610Z,68.78
2017-09-10T21:31:54.006Z,67.83
2017-09-10T21:34:21.383Z,67.93
2017-09-10T21:36:48.767Z,69.07
2017-09-10T21:39:16.150Z,67.61
2017-09-10T21:41:43.541Z,67.37
2017-09-10T21:44:10.931Z,66.95
2017-09-10T21:46:38.316Z,67.62
2017-09-10T21:49:05.699Z,67.40
2017-09-10T21:51:33.082Z,66.98
2017-09-10T21:54:00.507Z,66.59
2017-09-10T21:56:27.886Z,67.41
2017-09-10T21:58:55.266Z,67.75
2017-09-10T22:01:22.658Z,66.70
2017-09-10T22:03:50.039Z,66.78
2017-09-10T22:06:17.418Z,67.55
2017-09-10T22:08:44.809Z,67.52
2017-09-10T22:11:12.298Z,67.81
2017-09-10T22:13:39.758Z,67.73
2017-09-10T22:16:07.148Z,67.96
2017-09-10T22:18:34.525Z,68.14
2017-09-10T22:21:01.919Z,68.66
2017-09-10T22:23:29.299Z,69.09
2017-09-10T22:25:56.768Z,69.15
2017-09-10T22:28:24.242Z,69.05
2017-09-10T22:30:51.647Z,68.86
2017-09-10T22:33:19.106Z,69.05
2017-09-10T22:35:46.491Z,68.82
2017-09-10T22:38:13.866Z,68.51
2017-09-10T22:40:41.266Z,68.54
2017-09-10T22:43:08.727Z,68.96
2017-09-10T22:45:36.119Z,68.72
2017-09-10T22:48:03.502Z,69.24
2017-09-10T22:50:30.894Z,68.79
2017-09-10T22:52:58.286Z,68.77
2017-09-10T22:55:25.710Z,69.12
2017-09-10T22:57:53.097Z,68.84
2017-09-10T23:00:20.474Z,69.84
2017-09-10T23:02:47.863Z,69.04
2017-09-10T23:05:15.247Z,69.30
2017-09-10T23:07:42.645Z,69.58
2017-09-10T23:10:10.023Z,69.69
2017-09-10T23:12:37.407Z,69.78
2017-09-10T23:15:04.794Z,69.35
2017-09-10T23:17:32.198Z,69.73
2017-09-10T23:19:59.587Z,69.49
2017-09-10T23:22:27.027Z,70.10
2017-09-10T23:24:54.406Z,69.74
2017-09-10T23:27:21.803Z,70.58
2017-09-10T23:29:49.195Z,70.15
2017-09-10T23:32:16.587Z,70.91
2017-09-10T23:34:43.979Z,70.56
2017-09-10T23:37:11.380Z,70.62
2017-09-10T23:39:38.764Z,70.87
2017-09-10T23:42:06.253Z,71.41
2017-09-10T23:44:33.650Z,71.53
2017-09-10T23:47:01.036Z,70.93
2017-09-10T23:49:28.422Z,70.83
2017-09-10T23:51:55.807Z,71.04
2017-09-10T23:54:23.191Z,71.13
2017-09-10T23:56:50.570Z,71.60
2017-09-10T23:59:17.955Z,71.54
